createdAt,value
2022-09-12T00:00:11.358Z,11.10
2022-09-12T00:02:38.085Z,11.10
2022-09-12T00:05:05.619Z,11.10
2022-09-12T00:07:32.289Z,11.10
2022-09-12T00:09:58.853Z,11.10
2022-09-12T00:12:25.728Z,11.10
2022-09-12T00:14:52.296Z,12.90
2022-09-12T00:17:18.969Z,11.10
2022-09-12T00:19:45.672Z,11.20
2022-09-12T00:22:12.585Z,11.20
2022-09-12T00:24:40.914Z,11.10
2022-09-12T00:27:07.587Z,11.10
2022-09-12T00:29:34.228Z,11.10
2022-09-12T00:32:01.095Z,11.00
2022-09-12T00:34:27.821Z,10.90
2022-09-12T00:36:54.515Z,10.90
2022-09-12T00:39:21.069Z,10.80
2022-09-12T00:41:47.748Z,10.90
2022-09-12T00:44:23.886Z,10.90
2022-09-12T00:46:52.641Z,10.90
2022-09-12T00:49:19.263Z,10.90
2022-09-12T00:51:48.726Z,11.00
2022-09-12T00:54:17.160Z,10.90
2022-09-12T00:56:44.514Z,10.90
2022-09-12T00:59:14.818Z,10.90
2022-09-12T01:01:42.482Z,10.90
2022-09-12T01:04:10.266Z,11.10
2022-09-12T01:06:39.815Z,10.80
2022-09-12T01:09:06.932Z,10.80
2022-09-12T01:11:37.487Z,10.80
2022-09-12T01:14:04.174Z,10.80
2022-09-12T01:16:31.061Z,10.10
2022-09-12T01:19:10.166Z,12.10
2022-09-12T01:21:47.704Z,10.60
2022-09-12T01:24:26.380Z,10.60
2022-09-12T01:27:08.316Z,10.50
2022-09-12T01:29:52.235Z,10.40
2022-09-12T01:32:28.072Z,10.30
2022-09-12T01:34:57.786Z,10.20
2022-09-12T01:37:43.060Z,10.20
2022-09-12T01:40:14.607Z,10.10
2022-09-12T01:42:45.267Z,10.00
2022-09-12T01:45:15.262Z,10.00
2022-09-12T01:47:44.887Z,10.00
2022-09-12T01:50:17.885Z,10.00
2022-09-12T01:52:44.720Z,10.00
2022-09-12T01:55:29.648Z,10.10
2022-09-12T01:58:03.419Z,10.10
2022-09-12T02:00:31.442Z,10.00
2022-09-12T02:03:04.040Z,12.40
2022-09-12T02:05:30.703Z,10.10
2022-09-12T02:08:00.982Z,10.10
2022-09-12T02:10:32.777Z,10.10
2022-09-12T02:13:06.852Z,10.00
2022-09-12T02:15:36.669Z,10.10
2022-09-12T02:18:05.872Z,10.20
2022-09-12T02:20:47.998Z,10.20
2022-09-12T02:23:27.335Z,10.20
2022-09-12T02:25:59.811Z,10.30
2022-09-12T02:28:30.035Z,10.30
2022-09-12T02:31:03.778Z,10.40
2022-09-12T02:33:37.512Z,10.40
2022-09-12T02:36:14.491Z,10.40
2022-09-12T02:38:44.573Z,10.40
2022-09-12T02:41:13.146Z,10.40
2022-09-12T02:43:40.548Z,10.40
2022-09-12T02:46:08.886Z,10.40
2022-09-12T02:48:37.309Z,10.30
2022-09-12T02:51:04.181Z,12.30
2022-09-12T02:53:31.067Z,10.20
2022-09-12T02:55:57.751Z,10.30
2022-09-12T02:58:26.803Z,11.30
2022-09-12T03:00:56.464Z,10.30
2022-09-12T03:03:23.169Z,10.30
2022-09-12T03:05:49.806Z,10.30
2022-09-12T03:08:35.339Z,12.90
2022-09-12T03:11:02.131Z,10.10
2022-09-12T03:13:47.548Z,10.10
2022-09-12T03:16:22.339Z,10.00
2022-09-12T03:18:48.989Z,10.00
2022-09-12T03:21:15.594Z,9.90
2022-09-12T03:23:45.256Z,10.00
2022-09-12T03:26:38.337Z,9.90
2022-09-12T03:29:06.361Z,9.80
2022-09-12T03:31:33.367Z,9.90
2022-09-12T03:34:00.462Z,10.00
2022-09-12T03:36:28.434Z,10.00
2022-09-12T03:38:55.273Z,10.30
2022-09-12T03:41:22.032Z,10.00
2022-09-12T03:43:48.697Z,12.80
2022-09-12T03:46:15.307Z,9.60
2022-09-12T03:48:41.997Z,10.00
2022-09-12T03:51:09.886Z,10.00
2022-09-12T03:53:37.039Z,10.00
2022-09-12T03:56:08.263Z,10.00
2022-09-12T03:58:36.444Z,9.90
2022-09-12T04:01:07.200Z,9.80
2022-09-12T04:03:33.930Z,9.90
2022-09-12T04:06:00.601Z,9.90
2022-09-12T04:08:27.308Z,9.90
2022-09-12T04:10:54.086Z,9.90
2022-09-12T04:13:20.789Z,10.20
2022-09-12T04:15:55.807Z,10.80
2022-09-12T04:18:22.464Z,12.30
2022-09-12T04:20:49.231Z,11.90
2022-09-12T04:23:16.082Z,11.60
2022-09-12T04:25:42.947Z,11.70
2022-09-12T04:28:09.641Z,9.60
2022-09-12T04:30:36.506Z,9.60
2022-09-12T04:33:07.919Z,9.50
2022-09-12T04:35:35.826Z,10.90
2022-09-12T04:38:02.876Z,9.50
2022-09-12T04:40:30.102Z,11.50
2022-09-12T04:42:57.032Z,9.30
2022-09-12T04:45:23.799Z,11.90
2022-09-12T04:47:50.633Z,11.20
2022-09-12T04:50:17.501Z,9.10
2022-09-12T04:52:44.549Z,9.00
2022-09-12T04:55:11.298Z,9.00
2022-09-12T04:57:38.119Z,9.00
2022-09-12T05:00:07.289Z,9.20
2022-09-12T05:02:34.702Z,9.00
2022-09-12T05:05:01.512Z,11.30
2022-09-12T05:07:28.248Z,7.60
2022-09-12T05:09:55.507Z,11.40
2022-09-12T05:12:22.451Z,10.10
2022-09-12T05:14:49.287Z,8.90
2022-09-12T05:17:15.954Z,10.60
2022-09-12T05:19:42.773Z,9.80
2022-09-12T05:22:09.835Z,9.10
2022-09-12T05:24:39.629Z,8.90
2022-09-12T05:27:06.589Z,9.90
2022-09-12T05:29:34.153Z,8.10
2022-09-12T05:32:01.087Z,9.10
2022-09-12T05:34:28.056Z,9.10
2022-09-12T05:36:54.775Z,12.40
2022-09-12T05:39:21.533Z,9.40
2022-09-12T05:41:48.264Z,9.20
2022-09-12T05:44:15.121Z,9.20
2022-09-12T05:46:43.053Z,9.30
2022-09-12T05:49:11.415Z,9.20
2022-09-12T05:51:39.861Z,9.40
2022-09-12T05:54:07.746Z,9.60
2022-09-12T05:56:38.938Z,11.80
2022-09-12T05:59:06.909Z,10.00
2022-09-12T06:01:34.599Z,10.20
2022-09-12T06:04:03.292Z,10.30
2022-09-12T06:06:30.989Z,10.40
2022-09-12T06:09:00.093Z,10.40
2022-09-12T06:11:27.507Z,10.60
2022-09-12T06:13:55.272Z,10.80
2022-09-12T06:16:22.841Z,10.80
2022-09-12T06:18:59.954Z,11.10
2022-09-12T06:21:27.180Z,11.20
2022-09-12T06:23:54.862Z,11.30
2022-09-12T06:26:23.430Z,12.40
2022-09-12T06:28:50.437Z,11.50
2022-09-12T06:31:18.684Z,11.80
2022-09-12T06:33:46.734Z,11.70
2022-09-12T06:36:14.934Z,11.80
2022-09-12T06:38:42.001Z,12.00
2022-09-12T06:41:10.713Z,12.10
2022-09-12T06:43:37.484Z,12.20
2022-09-12T06:46:04.398Z,12.40
2022-09-12T06:48:31.169Z,12.30
2022-09-12T06:50:58.655Z,12.40
2022-09-12T06:53:25.928Z,12.50
2022-09-12T06:55:59.644Z,12.50
2022-09-12T06:58:27.251Z,12.50
2022-09-12T07:00:58.979Z,12.50
2022-09-12T07:03:25.797Z,12.60
2022-09-12T07:05:52.519Z,13.70
2022-09-12T07:08:19.100Z,12.60
2022-09-12T07:10:45.709Z,14.70
2022-09-12T07:13:12.534Z,12.70
2022-09-12T07:15:39.248Z,15.00
2022-09-12T07:18:06.312Z,12.80
2022-09-12T07:20:33.319Z,12.90
2022-09-12T07:23:00.108Z,14.00
2022-09-12T07:25:27.333Z,13.00
2022-09-12T07:27:54.112Z,13.10
2022-09-12T07:30:21.012Z,13.30
2022-09-12T07:32:47.906Z,13.30
2022-09-12T07:35:14.648Z,14.10
2022-09-12T07:37:41.337Z,13.40
2022-09-12T07:40:08.297Z,13.50
2022-09-12T07:42:35.074Z,13.50
2022-09-12T07:45:01.866Z,13.60
2022-09-12T07:47:28.642Z,13.70
2022-09-12T07:49:55.276Z,13.70
2022-09-12T07:52:22.049Z,13.70
2022-09-12T07:54:48.731Z,13.70
2022-09-12T07:57:15.772Z,13.80
2022-09-12T07:59:52.655Z,15.40
2022-09-12T08:02:20.388Z,13.80
2022-09-12T08:04:48.187Z,13.90
2022-09-12T08:07:15.475Z,14.00
2022-09-12T08:09:42.095Z,14.10
2022-09-12T08:12:08.815Z,14.10
2022-09-12T08:14:35.575Z,14.20
2022-09-12T08:17:02.238Z,14.30
2022-09-12T08:19:28.857Z,14.40
2022-09-12T08:21:55.624Z,14.50
2022-09-12T08:24:22.411Z,14.60
2022-09-12T08:26:49.360Z,15.70
2022-09-12T08:29:16.111Z,14.70
2022-09-12T08:31:42.751Z,14.80
2022-09-12T08:34:10.032Z,17.30
2022-09-12T08:36:36.792Z,15.10
2022-09-12T08:39:05.521Z,15.00
2022-09-12T08:41:35.143Z,15.00
2022-09-12T08:44:11.802Z,15.50
2022-09-12T08:46:47.757Z,15.10
2022-09-12T08:49:18.404Z,15.20
2022-09-12T08:51:45.295Z,15.30
2022-09-12T08:54:19.855Z,15.40
2022-09-12T08:56:46.857Z,16.30
2022-09-12T09:17:54.125Z,16.50
2022-09-12T09:20:29.770Z,16.60
2022-09-12T09:23:17.457Z,16.70
2022-09-12T09:25:46.990Z,17.80
2022-09-12T09:28:16.728Z,16.90
2022-09-12T09:30:44.729Z,17.70
2022-09-12T09:33:22.131Z,17.10
2022-09-12T09:35:54.528Z,17.30
2022-09-12T09:38:30.473Z,19.30
2022-09-12T09:41:01.403Z,17.60
2022-09-12T09:43:28.986Z,17.60
2022-09-12T09:45:57.420Z,17.80
2022-09-12T09:48:26.796Z,18.00
2022-09-12T09:50:55.533Z,19.30
2022-09-12T09:53:41.349Z,18.40
2022-09-12T09:56:13.423Z,18.30
2022-09-12T09:58:40.405Z,18.40
2022-09-12T10:01:14.008Z,18.60
2022-09-12T10:03:40.792Z,18.70
2022-09-12T10:06:20.257Z,21.00
2022-09-12T10:11:23.053Z,19.00
2022-09-12T10:13:56.758Z,19.10
2022-09-12T10:16:28.200Z,19.30
2022-09-12T10:18:56.123Z,19.40
2022-09-12T10:21:29.624Z,19.50
2022-09-12T10:24:05.104Z,19.60
2022-09-12T10:26:33.843Z,19.70
2022-09-12T10:29:05.909Z,19.90
2022-09-12T10:31:43.878Z,20.00
2022-09-12T10:34:32.424Z,20.10
2022-09-12T10:37:00.847Z,22.10
2022-09-12T10:39:27.823Z,21.80
2022-09-12T10:41:54.501Z,20.20
2022-09-12T10:44:28.953Z,20.30
2022-09-12T10:46:55.980Z,20.40
2022-09-12T10:49:22.628Z,22.80
2022-09-12T10:51:49.767Z,22.10
2022-09-12T10:54:18.149Z,21.50
2022-09-12T10:56:44.810Z,23.40
2022-09-12T10:59:34.378Z,22.40
2022-09-12T11:02:15.133Z,21.20
2022-09-12T11:04:44.786Z,23.90
2022-09-12T11:07:29.967Z,21.40
2022-09-12T11:10:11.917Z,21.40
2022-09-12T11:12:44.801Z,21.40
2022-09-12T11:15:35.542Z,21.40
2022-09-12T11:18:10.120Z,21.50
2022-09-12T11:20:45.393Z,21.50
2022-09-12T11:23:30.957Z,21.50
2022-09-12T11:26:06.753Z,21.50
2022-09-12T11:28:47.087Z,21.50
2022-09-12T11:31:17.102Z,21.60
2022-09-12T11:33:49.255Z,21.60
2022-09-12T11:36:31.392Z,21.60
2022-09-12T11:39:02.274Z,21.70
2022-09-12T11:41:31.641Z,21.80
2022-09-12T11:44:17.047Z,21.90
2022-09-12T11:46:46.712Z,21.90
2022-09-12T11:49:35.618Z,22.00
2022-09-12T11:52:24.270Z,22.10
2022-09-12T11:55:00.277Z,22.10
2022-09-12T11:57:30.546Z,22.10
2022-09-12T12:00:04.444Z,22.10
2022-09-12T12:02:37.179Z,21.90
2022-09-12T12:05:17.747Z,21.80
2022-09-12T12:07:51.518Z,21.90
2022-09-12T12:10:37.092Z,21.90
2022-09-12T12:13:13.885Z,22.00
2022-09-12T12:15:46.213Z,23.70
2022-09-12T12:18:21.988Z,23.80
2022-09-12T12:20:52.650Z,22.10
2022-09-12T12:23:28.773Z,22.10
2022-09-12T12:25:57.485Z,22.10
2022-09-12T12:28:42.763Z,22.10
2022-09-12T12:31:12.700Z,22.20
2022-09-12T12:33:39.585Z,22.10
2022-09-12T12:36:09.280Z,22.80
2022-09-12T12:38:41.033Z,23.10
2022-09-12T12:41:19.388Z,22.90
2022-09-12T12:43:47.042Z,22.00
2022-09-12T12:46:17.923Z,22.00
2022-09-12T12:48:47.593Z,22.10
2022-09-12T12:51:15.899Z,23.30
2022-09-12T12:53:42.852Z,22.10
2022-09-12T12:56:26.637Z,23.40
2022-09-12T12:59:01.248Z,23.90
2022-09-12T13:01:28.432Z,22.10
2022-09-12T13:03:55.372Z,22.20
2022-09-12T13:06:42.015Z,22.20
2022-09-12T13:09:21.583Z,22.30
2022-09-12T13:11:55.941Z,22.20
2022-09-12T13:14:36.600Z,22.20
2022-09-12T13:17:07.752Z,22.20
2022-09-12T13:19:38.108Z,22.40
2022-09-12T13:22:06.445Z,22.40
2022-09-12T13:24:33.262Z,22.40
2022-09-12T13:26:59.988Z,22.40
2022-09-12T13:29:27.469Z,22.70
2022-09-12T13:32:12.385Z,24.10
2022-09-12T13:35:05.686Z,22.20
2022-09-12T13:37:41.463Z,22.30
2022-09-12T13:40:29.815Z,22.30
2022-09-12T13:43:05.389Z,22.30
2022-09-12T13:45:35.118Z,22.30
2022-09-12T13:48:02.968Z,22.50
2022-09-12T13:50:38.688Z,22.30
2022-09-12T13:53:07.104Z,22.30
2022-09-12T13:55:35.564Z,24.10
2022-09-12T13:58:03.861Z,22.30
2022-09-12T14:00:32.124Z,22.50
2022-09-12T14:03:18.132Z,22.40
2022-09-12T14:05:46.561Z,22.50
2022-09-12T14:08:15.269Z,22.60
2022-09-12T14:10:43.601Z,24.30
2022-09-12T14:13:12.921Z,22.50
2022-09-12T14:15:40.088Z,22.60
2022-09-12T14:18:08.881Z,22.40
2022-09-12T14:20:37.002Z,23.20
2022-09-12T14:23:06.487Z,23.60
2022-09-12T14:25:37.279Z,22.40
2022-09-12T14:28:04.554Z,22.30
2022-09-12T14:30:32.866Z,22.30
2022-09-12T14:33:03.428Z,22.30
2022-09-12T14:35:30.075Z,22.30
2022-09-12T14:37:56.665Z,22.30
2022-09-12T14:40:23.883Z,23.10
2022-09-12T14:42:51.473Z,22.30
2022-09-12T14:45:36.010Z,22.30
2022-09-12T14:48:02.707Z,22.40
2022-09-12T14:50:31.554Z,22.40
2022-09-12T14:53:04.259Z,22.40
2022-09-12T14:55:32.029Z,22.40
2022-09-12T14:58:23.579Z,22.50
2022-09-12T15:01:02.452Z,22.50
2022-09-12T15:03:32.039Z,22.40
2022-09-12T15:05:59.432Z,22.40
2022-09-12T15:08:26.835Z,22.40
2022-09-12T15:10:53.448Z,22.40
2022-09-12T15:13:21.495Z,24.60
2022-09-12T15:15:48.181Z,22.70
2022-09-12T15:18:15.446Z,22.50
2022-09-12T15:20:43.344Z,22.50
2022-09-12T15:23:18.848Z,22.60
2022-09-12T15:25:45.509Z,22.50
2022-09-12T15:28:22.202Z,22.40
2022-09-12T15:30:50.552Z,22.40
2022-09-12T15:33:22.795Z,22.30
2022-09-12T15:35:49.867Z,22.30
2022-09-12T15:38:16.581Z,22.20
2022-09-12T15:40:43.124Z,21.30
2022-09-12T15:43:12.087Z,22.30
2022-09-12T15:45:38.620Z,22.30
2022-09-12T15:48:05.702Z,22.30
2022-09-12T15:50:32.243Z,22.30
2022-09-12T15:52:59.140Z,22.30
2022-09-12T15:55:28.251Z,22.30
2022-09-12T15:57:55.387Z,23.00
2022-09-12T16:00:22.508Z,22.20
2022-09-12T16:02:50.963Z,22.10
2022-09-12T16:05:19.616Z,22.30
2022-09-12T16:07:46.662Z,23.40
2022-09-12T16:10:17.177Z,22.20
2022-09-12T16:12:44.719Z,22.10
2022-09-12T16:15:13.028Z,24.30
2022-09-12T16:17:39.617Z,22.00
2022-09-12T16:20:06.475Z,22.00
2022-09-12T16:22:33.157Z,21.90
2022-09-12T16:24:59.704Z,21.80
2022-09-12T16:27:26.401Z,21.80
2022-09-12T16:29:52.941Z,21.70
2022-09-12T16:32:19.537Z,21.60
2022-09-12T16:34:46.070Z,22.80
2022-09-12T16:37:12.665Z,21.60
2022-09-12T16:39:39.256Z,21.40
2022-09-12T16:42:05.970Z,19.30
2022-09-12T16:44:32.523Z,21.30
2022-09-12T16:46:59.108Z,21.20
2022-09-12T16:49:25.785Z,21.10
2022-09-12T16:51:52.348Z,21.00
2022-09-12T16:54:18.961Z,21.00
2022-09-12T16:56:46.618Z,21.90
2022-09-12T16:59:16.256Z,20.90
2022-09-12T17:01:43.265Z,20.80
2022-09-12T17:04:10.391Z,20.80
2022-09-12T17:06:36.975Z,20.70
2022-09-12T17:09:04.759Z,20.70
2022-09-12T17:11:33.254Z,20.60
2022-09-12T17:14:04.825Z,20.50
2022-09-12T17:16:34.124Z,23.00
2022-09-12T17:19:00.918Z,20.50
2022-09-12T17:21:27.539Z,20.40
2022-09-12T17:23:54.313Z,20.40
2022-09-12T17:26:20.871Z,20.30
2022-09-12T17:28:48.069Z,20.30
2022-09-12T17:31:15.088Z,20.20
2022-09-12T17:33:42.009Z,19.90
2022-09-12T17:36:15.088Z,19.90
2022-09-12T17:38:42.333Z,19.70
2022-09-12T17:41:15.169Z,22.30
2022-09-12T17:43:42.213Z,19.50
2022-09-12T17:46:08.910Z,19.30
2022-09-12T17:48:35.665Z,19.20
2022-09-12T17:51:08.828Z,19.10
2022-09-12T17:53:35.570Z,18.90
2022-09-12T17:56:03.213Z,18.80
2022-09-12T17:58:30.120Z,18.50
2022-09-12T18:01:25.557Z,20.10
2022-09-12T18:04:00.703Z,18.30
2022-09-12T18:06:28.095Z,18.20
2022-09-12T18:08:54.839Z,18.00
2022-09-12T18:11:21.470Z,18.80
2022-09-12T18:13:48.253Z,19.30
2022-09-12T18:16:16.181Z,17.70
2022-09-12T18:18:42.843Z,18.60
2022-09-12T18:21:10.837Z,17.40
2022-09-12T18:23:37.714Z,17.40
2022-09-12T18:26:05.981Z,17.30
2022-09-12T18:28:33.553Z,17.10
2022-09-12T18:31:00.413Z,17.20
2022-09-12T18:33:27.172Z,17.30
2022-09-12T18:35:54.076Z,17.00
2022-09-12T18:38:20.941Z,16.80
2022-09-12T18:40:47.605Z,16.70
2022-09-12T18:43:14.512Z,16.70
2022-09-12T18:45:41.178Z,17.90
2022-09-12T18:48:07.900Z,16.50
2022-09-12T18:50:34.638Z,16.40
2022-09-12T18:53:01.316Z,16.40
2022-09-12T18:55:28.119Z,16.30
2022-09-12T18:57:55.457Z,17.10
2022-09-12T19:00:22.070Z,16.90
2022-09-12T19:02:48.670Z,16.10
2022-09-12T19:05:16.069Z,16.10
2022-09-12T19:07:42.741Z,16.00
2022-09-12T19:10:09.690Z,16.00
2022-09-12T19:12:36.305Z,15.90
2022-09-12T19:15:03.954Z,17.30
2022-09-12T19:17:30.543Z,15.70
2022-09-12T19:19:57.341Z,15.90
2022-09-12T19:22:23.941Z,17.80
2022-09-12T19:24:50.544Z,15.50
2022-09-12T19:27:17.131Z,17.70
2022-09-12T19:29:43.872Z,15.50
2022-09-12T19:32:10.515Z,15.40
2022-09-12T19:34:37.135Z,16.30
2022-09-12T19:37:04.172Z,15.50
2022-09-12T19:39:31.417Z,15.40
2022-09-12T19:41:58.015Z,15.70
2022-09-12T19:44:27.111Z,15.50
2022-09-12T19:46:53.758Z,15.30
2022-09-12T19:49:20.305Z,15.40
2022-09-12T19:51:47.134Z,16.20
2022-09-12T19:54:13.837Z,15.40
2022-09-12T19:56:40.523Z,16.50
2022-09-12T19:59:07.133Z,15.20
2022-09-12T20:01:37.149Z,15.00
2022-09-12T20:04:04.451Z,15.00
2022-09-12T20:06:31.027Z,15.40
2022-09-12T20:08:58.039Z,14.80
2022-09-12T20:11:25.898Z,16.20
2022-09-12T20:13:52.744Z,14.80
2022-09-12T20:16:22.451Z,14.90
2022-09-12T20:18:53.271Z,14.90
2022-09-12T20:21:20.872Z,14.90
2022-09-12T20:23:47.583Z,14.90
2022-09-12T20:26:14.235Z,14.80
2022-09-12T20:28:41.269Z,14.70
2022-09-12T20:31:10.379Z,14.60
2022-09-12T20:33:37.051Z,14.60
2022-09-12T20:36:07.941Z,15.20
2022-09-12T20:38:35.036Z,14.80
2022-09-12T20:41:02.392Z,15.20
2022-09-12T20:43:29.137Z,16.40
2022-09-12T20:45:55.894Z,16.00
2022-09-12T20:48:23.013Z,15.40
2022-09-12T20:50:49.827Z,15.10
2022-09-12T20:53:16.836Z,15.50
2022-09-12T20:55:53.195Z,16.10
2022-09-12T20:58:20.750Z,14.30
2022-09-12T21:00:47.725Z,15.30
2022-09-12T21:03:15.070Z,14.30
2022-09-12T21:05:42.226Z,16.40
2022-09-12T21:08:09.319Z,15.50
2022-09-12T21:10:36.020Z,15.30
2022-09-12T21:13:02.772Z,16.40
2022-09-12T21:15:29.471Z,16.40
2022-09-12T21:17:56.330Z,15.80
2022-09-12T21:20:23.137Z,15.90
2022-09-12T21:22:49.905Z,14.20
2022-09-12T21:25:16.628Z,15.90
2022-09-12T21:27:43.320Z,14.30
2022-09-12T21:30:10.428Z,14.30
2022-09-12T21:32:37.592Z,14.40
2022-09-12T21:35:07.558Z,14.40
2022-09-12T21:37:35.117Z,14.30
2022-09-12T21:40:04.570Z,15.80
2022-09-12T21:42:31.915Z,14.40
2022-09-12T21:44:58.726Z,14.50
2022-09-12T21:47:28.163Z,14.40
2022-09-12T21:49:55.478Z,15.60
2022-09-12T21:52:22.179Z,14.50
2022-09-12T21:54:51.357Z,15.10
2022-09-12T21:57:18.114Z,14.30
2022-09-12T21:59:44.859Z,14.80
2022-09-12T22:02:12.657Z,15.50
2022-09-12T22:04:39.412Z,15.80
2022-09-12T22:07:06.276Z,16.10
2022-09-12T22:09:34.472Z,14.20
2022-09-12T22:12:02.327Z,16.20
2022-09-12T22:14:29.767Z,14.20
2022-09-12T22:16:56.961Z,14.10
2022-09-12T22:19:23.730Z,15.70
2022-09-12T22:22:09.459Z,15.50
2022-09-12T22:24:36.474Z,15.80
2022-09-12T22:27:04.992Z,15.40
2022-09-12T22:29:32.387Z,15.40
2022-09-12T22:31:59.605Z,15.80
2022-09-12T22:34:26.885Z,16.10
2022-09-12T22:36:53.605Z,15.70
2022-09-12T22:39:20.421Z,15.30
2022-09-12T22:41:47.538Z,15.10
2022-09-12T22:44:14.464Z,15.40
2022-09-12T22:46:41.503Z,15.80
2022-09-12T22:49:08.226Z,14.20
2022-09-12T22:51:35.521Z,16.10
2022-09-12T22:54:02.730Z,14.90
2022-09-12T22:56:29.436Z,16.00
2022-09-12T22:58:56.287Z,14.90
2022-09-12T23:01:24.023Z,14.00
2022-09-12T23:03:52.434Z,13.90
2022-09-12T23:06:19.184Z,15.20
2022-09-12T23:08:46.009Z,15.20
2022-09-12T23:11:14.166Z,12.80
2022-09-12T23:13:45.582Z,16.00
2022-09-12T23:16:19.277Z,14.00
2022-09-12T23:18:46.077Z,13.90
2022-09-12T23:21:13.332Z,16.00
2022-09-12T23:23:40.011Z,13.70
2022-09-12T23:26:11.429Z,13.80
2022-09-12T23:28:39.235Z,13.90
2022-09-12T23:31:06.450Z,14.00
2022-09-12T23:33:34.283Z,16.10
2022-09-12T23:36:02.263Z,13.90
2022-09-12T23:38:32.908Z,14.90
2022-09-12T23:41:02.021Z,15.60
2022-09-12T23:43:29.294Z,13.80
2022-09-12T23:45:56.271Z,15.20
2022-09-12T23:48:23.338Z,14.90
2022-09-12T23:50:50.143Z,13.90
2022-09-12T23:53:19.884Z,15.10
2022-09-12T23:55:47.122Z,14.10
2022-09-12T23:58:17.450Z,14.30
